Time;durP1;ratioP1;P1;durP2;ratioP2;P2;SDS_P1;SDS_P2;PMS_P1;PMS_P2;Temp;Humidity;BMP_temperature;BMP_pressure;BME280_temperature;BME280_humidity;BME280_pressure;Samples;Min_cycle;Max_cycle;Signal;HPM_P1;HPM_P2
2023/05/11 00:00:24;;;;;;;8.10;1.95;;;;;;;11.17;84.71;100576.91;5039376;28;20045;-44
2023/05/11 00:07:13;;;;;;;6.53;1.80;;;;;;;11.06;84.74;100590.47;4979841;26;20105;-45
2023/05/11 00:09:41;;;;;;;3.03;1.35;;;;;;;11.05;84.95;100591.59;5075339;28;20041;-45
2023/05/11 00:12:08;;;;;;;8.00;1.85;;;;;;;11.07;85.20;100586.50;5074756;28;20044;-44
2023/05/11 00:14:38;;;;;;;5.38;1.83;;;;;;;11.10;85.47;100591.34;5075407;28;20055;-44
2023/05/11 00:17:06;;;;;;;4.85;1.85;;;;;;;11.13;85.63;100587.88;5063928;28;20398;-44
2023/05/11 00:19:33;;;;;;;4.90;1.50;;;;;;;11.17;85.37;100594.34;5073104;28;20045;-44
2023/05/11 00:22:00;;;;;;;5.10;1.65;;;;;;;11.18;85.22;100593.16;5074296;28;20050;-44
2023/05/11 00:24:29;;;;;;;2.58;1.25;;;;;;;11.19;85.38;100592.03;5074060;28;20040;-44
2023/05/11 00:26:56;;;;;;;4.65;1.75;;;;;;;11.22;85.58;100607.94;5072942;28;20044;-44
2023/05/11 00:34:15;;;;;;;4.57;1.60;;;;;;;11.23;85.64;100592.91;5062390;22;20094;-44
2023/05/11 00:37:03;;;;;;;9.80;3.83;;;;;;;11.23;85.33;100594.88;5054524;28;20045;-44
2023/05/11 00:39:50;;;;;;;4.47;1.55;;;;;;;11.17;85.13;100596.31;5054334;28;20041;-44
2023/05/11 00:42:40;;;;;;;5.07;2.40;;;;;;;11.10;85.38;100599.66;5051225;28;20395;-53
2023/05/11 00:45:14;;;;;;;5.60;2.10;;;;;;;11.08;85.58;100601.16;5054675;28;20043;-49
2023/05/11 00:47:44;;;;;;;11.90;4.38;;;;;;;11.06;85.81;100596.00;5035416;28;20071;-45
2023/05/11 00:50:17;;;;;;;3.75;1.70;;;;;;;11.05;85.89;100611.00;5055465;28;20064;-59
2023/05/11 00:52:46;;;;;;;5.55;2.22;;;;;;;11.03;85.95;100605.00;5055291;28;20145;-43
2023/05/11 00:55:15;;;;;;;7.53;2.63;;;;;;;11.00;85.80;100605.72;5053599;28;20045;-44
2023/05/11 00:57:43;;;;;;;6.13;1.60;;;;;;;11.00;86.06;100606.50;5053262;28;20098;-44
2023/05/11 01:00:11;;;;;;;6.63;2.15;;;;;;;10.95;86.04;100598.47;5053816;28;20094;-49
2023/05/11 01:11:07;;;;;;;6.05;2.20;;;;;;;10.83;86.20;100612.31;5034831;28;20037;-44
2023/05/11 01:13:41;;;;;;;8.35;2.20;;;;;;;10.81;86.08;100624.91;5035429;28;20081;-45
2023/05/11 01:16:23;;;;;;;5.22;1.95;;;;;;;10.77;86.21;100612.94;5017580;28;20111;-50
2023/05/11 01:18:58;;;;;;;6.93;3.40;;;;;;;10.75;86.41;100618.81;5016545;28;20069;-45
2023/05/11 01:21:40;;;;;;;5.40;2.83;;;;;;;10.73;86.38;100623.06;5032513;28;20048;-44
2023/05/11 01:24:36;;;;;;;7.95;2.97;;;;;;;10.68;86.50;100612.25;5034453;28;20159;-44
2023/05/11 01:27:30;;;;;;;6.47;2.80;;;;;;;10.58;87.21;100621.84;5032308;28;20058;-49
2023/05/11 01:29:57;;;;;;;4.43;2.88;;;;;;;10.61;86.90;100614.81;5033866;28;20137;-44
2023/05/11 01:32:45;;;;;;;5.50;2.22;;;;;;;10.62;87.22;100628.28;5034227;28;20117;-45
2023/05/11 01:35:19;;;;;;;3.33;2.13;;;;;;;10.64;87.20;100625.19;5015949;28;20392;-46
2023/05/11 01:37:56;;;;;;;7.70;2.75;;;;;;;10.67;87.44;100618.97;5017548;28;20045;-45
2023/05/11 01:40:26;;;;;;;9.10;3.10;;;;;;;10.67;87.45;100613.41;5017555;28;20048;-44
2023/05/11 01:43:19;;;;;;;5.57;2.20;;;;;;;10.64;87.12;100628.75;5033233;28;20048;-44
2023/05/11 01:46:09;;;;;;;5.18;2.17;;;;;;;10.64;87.51;100614.94;5020295;28;20061;-44
2023/05/11 01:48:42;;;;;;;5.70;1.77;;;;;;;10.64;87.40;100608.56;5033294;28;20049;-45
2023/05/11 01:51:11;;;;;;;5.53;1.63;;;;;;;10.61;87.42;100614.81;5032775;28;20506;-44
2023/05/11 01:53:41;;;;;;;5.93;1.88;;;;;;;10.57;87.58;100614.69;5036170;28;20045;-44
2023/05/11 01:56:34;;;;;;;6.28;1.70;;;;;;;10.55;87.59;100630.03;5035458;28;20053;-44
2023/05/11 01:59:18;;;;;;;7.30;1.50;;;;;;;10.52;87.81;100628.75;5038518;28;20041;-44
2023/05/11 02:06:39;;;;;;;5.18;0.95;;;;;;;10.43;87.77;100633.63;5061526;22;20063;-45
2023/05/11 02:09:29;;;;;;;3.83;1.67;;;;;;;10.39;87.92;100636.28;5043948;28;20499;-44
2023/05/11 02:12:19;;;;;;;4.75;1.55;;;;;;;10.37;88.17;100633.06;5056882;28;20044;-44
2023/05/11 02:14:50;;;;;;;;;;;;;;;10.36;88.79;100628.66;5041940;28;20056;-44
2023/05/11 02:17:20;;;;;;;7.75;1.50;;;;;;;10.36;88.17;100631.44;5039853;28;19928;-44
2023/05/11 02:19:50;;;;;;;;;;;;;;;10.37;88.48;100632.25;5040603;28;20069;-45
2023/05/11 02:22:19;;;;;;;7.15;1.15;;;;;;;10.32;88.20;100647.13;5057043;28;20429;-44
2023/05/11 02:24:54;;;;;;;7.78;1.50;;;;;;;10.29;88.06;100642.28;5055555;28;20045;-45
2023/05/11 02:27:21;;;;;;;9.88;2.33;;;;;;;10.28;88.24;100640.66;5040752;28;20091;-45
2023/05/11 02:29:48;;;;;;;6.90;1.67;;;;;;;10.29;88.24;100647.81;5058208;28;20402;-44
2023/05/11 02:32:19;;;;;;;7.05;1.40;;;;;;;10.28;88.53;100650.91;5056938;28;20115;-44
2023/05/11 02:35:35;;;;;;;7.38;1.38;;;;;;;10.29;88.94;100647.00;5034706;28;20064;-44
2023/05/11 02:42:23;;;;;;;5.70;1.52;;;;;;;10.41;88.60;100655.28;5037327;28;20041;-44
2023/05/11 02:45:01;;;;;;;7.43;1.17;;;;;;;10.40;88.94;100646.19;5041715;28;20045;-44
2023/05/11 02:47:32;;;;;;;5.50;1.38;;;;;;;10.44;88.73;100648.25;5056838;28;20091;-44
2023/05/11 02:50:03;;;;;;;14.00;1.73;;;;;;;10.47;88.71;100653.91;5039313;28;20061;-44
2023/05/11 02:52:32;;;;;;;10.07;1.77;;;;;;;10.49;88.79;100650.78;5057376;28;20498;-44
2023/05/11 02:55:15;;;;;;;11.23;1.90;;;;;;;10.53;88.73;100651.72;5055354;28;20045;-48
2023/05/11 02:57:45;;;;;;;8.73;2.97;;;;;;;10.52;88.98;100650.09;5038359;28;20041;-45
2023/05/11 03:00:12;;;;;;;9.60;1.77;;;;;;;10.50;88.79;100653.22;5054858;28;20045;-44
2023/05/11 03:02:39;;;;;;;11.35;1.45;;;;;;;10.52;88.96;100659.22;5055006;28;20047;-44
2023/05/11 03:09:30;;;;;;;6.57;1.60;;;;;;;10.49;88.79;100651.59;522172;26;21064;-46
2023/05/11 03:12:18;;;;;;;8.43;1.50;;;;;;;10.44;88.76;100651.03;5032829;28;20050;-44
2023/05/11 03:14:51;;;;;;;6.43;1.40;;;;;;;10.40;89.05;100643.41;5037185;28;20459;-50
2023/05/11 03:17:23;;;;;;;6.25;1.55;;;;;;;10.39;89.25;100654.84;5035141;28;20054;-59
2023/05/11 03:20:10;;;;;;;9.27;1.75;;;;;;;10.38;89.54;100645.72;5037290;28;20041;-43
2023/05/11 03:22:59;;;;;;;4.40;1.60;;;;;;;10.42;89.53;100658.88;5013313;28;20487;-46
2023/05/11 03:25:28;;;;;;;13.00;2.08;;;;;;;10.44;89.64;100653.78;5015411;28;20140;-44
2023/05/11 03:27:57;;;;;;;8.75;1.38;;;;;;;10.45;89.88;100641.56;5014485;28;20499;-43
2023/05/11 03:30:26;;;;;;;7.35;1.63;;;;;;;10.46;90.01;100643.19;4998077;28;20187;-44
2023/05/11 03:32:54;;;;;;;6.22;1.67;;;;;;;10.47;89.92;100653.09;5025684;28;20068;-44
2023/05/11 03:35:26;;;;;;;6.75;1.45;;;;;;;10.43;90.13;100647.47;5036513;28;20487;-44
2023/05/11 03:47:09;;;;;;;12.75;2.53;;;;;;;10.45;89.97;100656.22;5040368;22;20064;-48
2023/05/11 03:49:57;;;;;;;6.97;1.92;;;;;;;10.45;90.04;100649.88;5033565;28;20517;-44
2023/05/11 03:52:39;;;;;;;10.15;1.45;;;;;;;10.43;90.20;100646.66;5017355;28;20119;-43
2023/05/11 03:55:09;;;;;;;;;;;;;;;10.42;90.61;100651.38;5036925;28;20479;-43
2023/05/11 03:57:37;;;;;;;3.33;1.42;;;;;;;10.39;90.45;100657.59;5034264;28;19921;-52
2023/05/11 04:00:06;;;;;;;13.27;2.78;;;;;;;10.38;90.52;100645.72;5035756;28;20052;-44
2023/05/11 04:02:34;;;;;;;13.57;2.15;;;;;;;10.39;90.60;100643.78;5018857;28;20450;-43
2023/05/11 04:10:02;;;;;;;6.75;1.40;;;;;;;10.39;90.77;100649.31;5012813;28;20042;-43
2023/05/11 04:12:53;;;;;;;8.23;2.45;;;;;;;10.39;90.78;100657.59;5012042;28;20046;-43
2023/05/11 04:15:21;;;;;;;10.05;2.70;;;;;;;10.39;90.99;100658.41;4983369;28;20053;-42
2023/05/11 04:17:48;;;;;;;9.95;1.73;;;;;;;10.39;91.12;100663.94;4996770;28;20052;-43
2023/05/11 04:20:15;;;;;;;8.20;2.15;;;;;;;10.37;91.26;100666.25;5015582;28;20124;-43
2023/05/11 04:22:43;;;;;;;10.75;1.80;;;;;;;10.38;91.46;100654.03;5014108;28;20133;-43
2023/05/11 04:25:13;;;;;;;10.13;2.20;;;;;;;10.37;91.42;100655.19;4983268;28;20092;-44
2023/05/11 04:28:01;;;;;;;8.90;2.15;;;;;;;10.38;91.39;100655.97;5013527;28;20109;-43
2023/05/11 04:30:29;;;;;;;13.32;2.58;;;;;;;10.37;91.49;100649.66;5013815;28;20050;-43
2023/05/11 04:32:59;;;;;;;8.15;1.95;;;;;;;10.39;91.71;100660.38;4999219;28;20137;-43
2023/05/11 04:35:28;;;;;;;10.73;2.35;;;;;;;10.38;91.57;100654.03;5012644;28;20104;-43
2023/05/11 04:37:56;;;;;;;9.68;2.47;;;;;;;10.37;91.66;100655.19;5013882;28;20050;-43
2023/05/11 04:40:26;;;;;;;12.20;2.58;;;;;;;10.34;91.76;100664.19;4996898;28;20048;-43
2023/05/11 04:42:54;;;;;;;13.00;3.00;;;;;;;10.35;91.78;100663.00;5027406;28;20053;-43
2023/05/11 04:45:24;;;;;;;11.43;2.30;;;;;;;10.36;92.00;100659.09;5032881;28;20414;-43
2023/05/11 04:47:51;;;;;;;10.52;3.58;;;;;;;10.37;91.79;100671.00;5017010;28;20448;-44
2023/05/11 04:50:19;;;;;;;8.10;2.50;;;;;;;10.34;91.90;100664.19;5016936;28;20073;-44
2023/05/11 04:53:23;;;;;;;10.98;2.25;;;;;;;10.35;92.19;100659.47;5021198;28;20054;-43
2023/05/11 04:59:52;;;;;;;13.05;1.83;;;;;;;10.35;92.08;100674.09;5020362;28;20398;-44
2023/05/11 05:02:39;;;;;;;7.57;2.25;;;;;;;10.34;92.14;100678.03;5034121;28;20045;-43
2023/05/11 05:05:43;;;;;;;8.88;1.95;;;;;;;10.32;92.24;100677.56;5035534;28;20553;-43
2023/05/11 05:08:11;;;;;;;14.82;4.38;;;;;;;10.34;92.26;100678.03;5032937;28;20087;-44
2023/05/11 05:10:38;;;;;;;13.60;3.03;;;;;;;10.36;92.32;100677.66;5016778;28;20073;-43
2023/05/11 05:13:08;;;;;;;12.02;2.45;;;;;;;10.39;92.33;100680.56;5017772;28;20049;-44
2023/05/11 05:15:35;;;;;;;12.25;2.25;;;;;;;10.43;92.40;100677.09;5033959;28;20042;-43
2023/05/11 05:18:41;;;;;;;9.82;3.15;;;;;;;10.46;92.44;100679.19;4999131;28;20053;-43
2023/05/11 05:28:59;;;;;;;10.70;3.58;;;;;;;10.49;92.26;100686.78;5034019;28;20552;-43
2023/05/11 05:31:37;;;;;;;17.10;2.40;;;;;;;10.52;92.40;100683.31;5015215;28;20072;-46
2023/05/11 05:34:37;;;;;;;10.50;2.50;;;;;;;10.53;92.62;100684.94;5025467;28;20045;-43
2023/05/11 05:37:40;;;;;;;9.77;3.17;;;;;;;10.53;92.30;100673.88;5029436;28;20411;-44
2023/05/11 05:40:17;;;;;;;9.02;1.88;;;;;;;10.55;92.44;100671.56;5086091;22;20140;-43
2023/05/11 05:42:52;;;;;;;16.42;3.75;;;;;;;10.54;92.44;100669.97;5013233;28;20124;-42
2023/05/11 05:46:06;;;;;;;10.00;2.17;;;;;;;10.57;92.51;100670.06;5016257;28;20049;-43
2023/05/11 05:48:33;;;;;;;8.00;2.88;;;;;;;10.61;92.62;100673.75;4998352;28;20448;-48
2023/05/11 05:51:23;;;;;;;10.18;2.65;;;;;;;10.64;92.54;100681.38;5016347;28;20050;-44
2023/05/11 05:54:35;;;;;;;14.88;3.40;;;;;;;10.65;92.41;100673.84;4999656;28;20046;-43
2023/05/11 05:57:07;;;;;;;20.02;4.35;;;;;;;10.65;92.45;100671.06;5006194;28;20496;-44
2023/05/11 05:59:39;;;;;;;11.75;3.00;;;;;;;10.65;92.61;100682.16;5017217;28;20050;-43
2023/05/11 06:02:55;;;;;;;15.68;2.80;;;;;;;10.69;92.74;100683.09;4995542;28;20092;-44
2023/05/11 06:09:19;;;;;;;9.55;2.72;;;;;;;10.76;92.46;100694.38;5014490;28;20041;-45
2023/05/11 06:11:54;;;;;;;15.73;3.42;;;;;;;10.75;92.40;100695.56;5016665;28;20045;-43
2023/05/11 06:14:25;;;;;;;12.32;2.67;;;;;;;10.77;92.40;100691.28;4985320;28;20499;-44
2023/05/11 06:24:33;;;;;;;12.55;2.65;;;;;;;10.79;92.71;100688.97;5017322;28;20069;-43
2023/05/11 06:31:14;;;;;;;11.60;3.10;;;;;;;10.96;92.87;100694.22;5017242;28;20061;-43
2023/05/11 06:33:57;;;;;;;7.53;2.20;;;;;;;11.04;92.78;100689.72;5017003;28;20042;-43
2023/05/11 06:40:15;;;;;;;14.23;2.63;;;;;;;11.37;92.61;100698.66;4996251;28;20124;-43
2023/05/11 06:46:37;;;;;;;10.48;2.30;;;;;;;11.53;92.19;100701.47;5022043;28;20046;-43
2023/05/11 06:49:04;;;;;;;5.22;2.30;;;;;;;11.50;92.05;100697.44;5015639;28;20049;-43
2023/05/11 06:51:44;;;;;;;5.25;2.40;;;;;;;11.46;92.08;100702.06;5015882;28;20137;-44
2023/05/11 06:54:10;;;;;;;9.73;3.00;;;;;;;11.44;92.40;100698.03;5023369;28;20050;-44
2023/05/11 06:56:38;;;;;;;13.90;2.53;;;;;;;11.43;92.53;100699.22;5032173;28;20045;-46
2023/05/11 06:59:26;;;;;;;11.30;3.17;;;;;;;11.45;92.73;100699.66;5034783;28;20060;-43
2023/05/11 07:02:45;;;;;;;11.63;2.80;;;;;;;11.50;92.77;100694.66;5014838;28;20038;-46
2023/05/11 07:09:16;;;;;;;12.32;2.88;;;;;;;11.69;92.40;100712.66;5016918;28;20037;-43
2023/05/11 07:11:43;;;;;;;13.40;2.65;;;;;;;11.63;92.04;100715.63;5013977;28;20047;-44
2023/05/11 07:17:54;;;;;;;13.43;2.78;;;;;;;11.41;92.47;100718.94;5027831;28;20037;-46
2023/05/11 07:21:16;;;;;;;11.32;2.70;;;;;;;11.38;92.77;100714.13;4991449;28;20072;-43
2023/05/11 07:23:44;;;;;;;14.87;5.23;;;;;;;11.39;92.71;100718.50;5018378;28;20050;-43
2023/05/11 07:26:11;;;;;;;9.63;2.60;;;;;;;11.42;92.98;100720.56;5035110;28;20644;-44
2023/05/11 07:28:41;;;;;;;7.90;2.00;;;;;;;11.46;92.93;100718.69;5002418;28;20449;-58
2023/05/11 07:31:09;;;;;;;13.55;2.35;;;;;;;11.56;93.05;100732.09;5031278;28;20499;-44
2023/05/11 07:33:38;;;;;;;12.25;2.30;;;;;;;11.71;92.95;100724.19;5031811;28;20550;-44
2023/05/11 07:36:06;;;;;;;16.40;3.45;;;;;;;11.82;92.56;100725.28;5014692;28;20037;-42
2023/05/11 07:38:32;;;;;;;9.40;2.05;;;;;;;11.87;92.43;100727.81;5033549;28;20056;-43
2023/05/11 07:40:59;;;;;;;7.13;2.10;;;;;;;11.97;92.86;100728.09;5034395;28;20061;-43
2023/05/11 07:43:26;;;;;;;13.18;3.63;;;;;;;12.03;92.69;100735.00;5014024;28;20050;-44
2023/05/11 07:53:54;;;;;;;8.63;1.85;;;;;;;12.39;93.13;100739.53;5025152;28;20049;-45
2023/05/11 08:00:44;;;;;;;8.63;3.00;;;;;;;12.60;92.86;100731.72;5026488;28;20515;-44
2023/05/11 08:03:32;;;;;;;4.53;1.85;;;;;;;12.63;92.57;100739.34;5023566;28;20061;-44
2023/05/11 08:06:20;;;;;;;8.82;2.00;;;;;;;12.59;92.51;100732.91;5011461;28;20067;-47
2023/05/11 08:09:07;;;;;;;5.63;1.67;;;;;;;12.58;92.43;100730.47;5017762;28;20495;-44
2023/05/11 08:11:57;;;;;;;8.05;2.83;;;;;;;12.66;93.29;100744.19;5015331;28;20088;-45
2023/05/11 08:22:49;;;;;;;9.48;1.75;;;;;;;14.38;91.31;100763.06;5028218;28;20092;-44
2023/05/11 08:25:18;;;;;;;4.43;1.40;;;;;;;14.47;91.27;100763.63;5010049;28;20482;-44
2023/05/11 08:27:46;;;;;;;4.32;2.17;;;;;;;14.35;90.38;100763.81;4980024;28;20062;-43
2023/05/11 08:30:17;;;;;;;8.02;1.63;;;;;;;14.27;90.55;100764.03;4994955;28;20113;-44
2023/05/11 08:32:44;;;;;;;4.95;1.60;;;;;;;14.59;91.36;100762.63;5020948;28;20056;-43
2023/05/11 08:36:15;;;;;;;4.97;1.35;;;;;;;15.70;89.18;100755.59;5029522;28;20069;-44
2023/05/11 08:39:43;;;;;;;3.30;1.30;;;;;;;15.98;87.80;100760.72;5019419;28;20064;-44
2023/05/11 08:42:17;;;;;;;4.65;1.33;;;;;;;16.19;86.78;100767.34;5030606;28;20099;-44
2023/05/11 08:44:46;;;;;;;6.10;1.23;;;;;;;16.30;86.69;100757.09;5029963;28;20053;-44
2023/05/11 08:52:36;;;;;;;7.13;1.10;;;;;;;16.39;84.07;100765.94;5069744;28;20058;-44
2023/05/11 08:55:06;;;;;;;3.90;1.38;;;;;;;17.11;84.07;100765.41;4993238;28;20042;-44
2023/05/11 08:57:33;;;;;;;6.45;1.25;;;;;;;18.24;80.97;100768.81;5011076;28;20478;-44
2023/05/11 09:00:01;;;;;;;2.28;0.82;;;;;;;18.53;77.78;100769.69;5013119;28;20038;-44
2023/05/11 09:02:29;;;;;;;6.95;1.10;;;;;;;18.52;77.61;100768.88;5008058;28;20038;-44
2023/05/11 09:04:58;;;;;;;3.78;1.00;;;;;;;18.92;75.17;100769.72;5011612;28;20046;-44
2023/05/11 09:07:27;;;;;;;2.83;0.77;;;;;;;18.78;73.78;100760.09;5013797;28;20053;-44
2023/05/11 09:09:53;;;;;;;4.20;0.88;;;;;;;18.19;72.92;100760.75;5012182;28;20066;-44
2023/05/11 09:12:24;;;;;;;3.05;1.10;;;;;;;17.46;72.65;100762.03;5013196;28;20037;-44
2023/05/11 09:14:55;;;;;;;3.70;0.90;;;;;;;16.73;73.06;100760.31;5012906;28;20048;-55
2023/05/11 09:17:27;;;;;;;2.45;0.90;;;;;;;16.01;73.33;100759.97;5010646;28;20116;-46
2023/05/11 09:20:05;;;;;;;3.72;0.80;;;;;;;15.37;74.21;100753.53;5012856;28;20492;-44
2023/05/11 09:22:33;;;;;;;4.25;1.35;;;;;;;14.98;74.85;100752.97;5000353;28;20584;-44
2023/05/11 09:25:02;;;;;;;4.65;0.98;;;;;;;14.66;75.04;100757.19;5006946;28;20497;-44
2023/05/11 09:27:30;;;;;;;3.97;1.35;;;;;;;14.53;75.58;100766.94;4994313;28;20046;-44
2023/05/11 09:30:10;;;;;;;6.22;1.25;;;;;;;14.61;75.66;100749.94;5001249;28;20057;-44
2023/05/11 09:33:00;;;;;;;3.08;1.00;;;;;;;14.96;75.23;100757.28;5014052;28;20496;-45
2023/05/11 09:35:34;;;;;;;2.72;0.70;;;;;;;15.35;74.58;100755.09;5011668;28;20061;-43
2023/05/11 09:38:11;;;;;;;4.55;1.08;;;;;;;15.51;74.10;100758.53;5013208;28;20049;-44
2023/05/11 09:40:43;;;;;;;2.22;1.00;;;;;;;15.33;74.26;100751.88;5014488;28;20385;-44
2023/05/11 09:43:23;;;;;;;2.63;0.60;;;;;;;14.93;74.32;100755.25;5013176;28;20495;-43
2023/05/11 09:45:56;;;;;;;2.72;0.60;;;;;;;14.67;74.80;100756.00;5000745;28;20042;-43
2023/05/11 09:48:31;;;;;;;4.82;1.05;;;;;;;14.68;75.22;100757.63;5011596;28;20049;-43
2023/05/11 09:51:04;;;;;;;2.47;0.80;;;;;;;15.67;74.68;100750.78;5013019;28;20070;-44
2023/05/11 09:53:35;;;;;;;2.53;1.05;;;;;;;16.25;72.83;100754.66;5022272;28;20069;-47
2023/05/11 09:56:03;;;;;;;9.32;2.92;;;;;;;16.34;72.23;100754.31;5012691;28;20030;-44
2023/05/11 09:58:54;;;;;;;4.72;0.85;;;;;;;16.26;72.35;100756.25;5011234;28;20050;-43
2023/05/11 10:01:29;;;;;;;5.22;0.90;;;;;;;16.09;72.36;100745.69;5028395;28;20414;-43
2023/05/11 10:03:58;;;;;;;1.13;0.57;;;;;;;15.85;72.38;100757.38;5032369;28;20076;-43
2023/05/11 10:06:57;;;;;;;6.68;0.90;;;;;;;15.53;73.00;100761.75;5030781;28;20480;-44
2023/05/11 10:09:31;;;;;;;3.78;1.00;;;;;;;15.14;73.59;100750.78;5032334;28;20048;-46
2023/05/11 10:12:00;;;;;;;2.75;0.77;;;;;;;14.89;74.10;100759.97;5029356;28;20049;-43
2023/05/11 10:14:29;;;;;;;2.95;0.50;;;;;;;14.75;74.52;100757.72;5003170;28;20046;-44
2023/05/11 10:16:57;;;;;;;1.60;0.50;;;;;;;14.71;74.92;100759.69;5016934;28;20403;-44
2023/05/11 10:19:24;;;;;;;2.47;0.85;;;;;;;14.68;75.05;100757.63;5021747;28;20053;-44
2023/05/11 10:21:52;;;;;;;3.47;0.65;;;;;;;14.68;75.41;100754.84;5032786;28;20116;-44
2023/05/11 10:24:21;;;;;;;1.58;0.50;;;;;;;15.13;75.18;100765.13;5030462;28;20124;-44
2023/05/11 10:26:49;;;;;;;5.70;1.27;;;;;;;16.07;73.39;100759.22;5031996;28;21061;-44
2023/05/11 10:29:18;;;;;;;2.50;1.05;;;;;;;16.95;72.00;100750.91;5035839;28;20045;-45
2023/05/11 10:31:47;;;;;;;2.67;1.10;;;;;;;17.36;71.33;100757.19;5036402;28;20160;-45
2023/05/11 10:34:15;;;;;;;4.72;0.90;;;;;;;17.76;70.87;100759.03;5036054;28;20100;-45
2023/05/11 10:36:45;;;;;;;2.53;0.80;;;;;;;18.01;69.99;100746.72;5035163;28;20053;-44
2023/05/11 10:39:11;;;;;;;2.83;0.98;;;;;;;18.02;69.61;100753.94;5034303;28;20041;-44
2023/05/11 10:41:56;;;;;;;5.07;1.10;;;;;;;18.23;69.44;100751.19;5033116;28;20045;-48
2023/05/11 10:45:04;;;;;;;6.40;0.80;;;;;;;17.99;69.73;100751.09;5034585;28;20058;-46
2023/05/11 10:47:43;;;;;;;2.03;0.80;;;;;;;17.48;70.12;100752.06;5004008;28;20060;-43
2023/05/11 10:50:53;;;;;;;2.13;1.00;;;;;;;17.03;70.42;100753.38;5028213;28;20132;-43
2023/05/11 10:54:02;;;;;;;2.63;0.98;;;;;;;16.68;70.64;100755.09;5034162;28;20045;-43
2023/05/11 10:56:56;;;;;;;5.57;0.90;;;;;;;16.50;71.30;100754.06;5036503;28;20044;-43
2023/05/11 10:59:42;;;;;;;4.82;0.70;;;;;;;16.40;71.83;100753.59;5035734;28;20041;-44
2023/05/11 11:02:09;;;;;;;2.65;0.90;;;;;;;16.62;71.56;100759.41;5033880;28;20136;-45
2023/05/11 11:04:45;;;;;;;4.63;1.30;;;;;;;16.99;71.03;100748.94;5034772;28;20136;-45
2023/05/11 11:07:16;;;;;;;3.58;1.23;;;;;;;17.19;70.75;100752.25;5035267;28;20053;-44
2023/05/11 11:09:53;;;;;;;2.88;1.00;;;;;;;17.24;70.66;100730.31;5030774;28;20033;-44
2023/05/11 11:12:21;;;;;;;2.85;0.50;;;;;;;17.20;70.84;100754.69;5036888;28;20168;-44
2023/05/11 11:14:54;;;;;;;1.30;0.60;;;;;;;16.97;70.48;100754.13;5035181;28;20052;-44
2023/05/11 11:17:27;;;;;;;3.58;0.52;;;;;;;16.56;70.18;100758.97;5033947;28;20128;-44
2023/05/11 11:19:54;;;;;;;2.72;0.47;;;;;;;16.02;70.15;100767.94;5032351;28;20056;-51
2023/05/11 11:22:37;;;;;;;2.15;0.40;;;;;;;15.67;70.44;100773.88;5035823;28;20353;-45
2023/05/11 11:25:06;;;;;;;6.68;0.52;;;;;;;15.39;70.80;100772.66;5030666;28;20049;-47
2023/05/11 11:27:39;;;;;;;2.10;0.55;;;;;;;15.25;71.24;100776.03;5035976;28;20083;-44
2023/05/11 11:30:27;;;;;;;5.50;0.80;;;;;;;15.17;71.46;100777.94;5033609;28;20045;-45
2023/05/11 11:33:06;;;;;;;3.70;1.02;;;;;;;15.08;71.57;100768.22;5036389;28;20041;-44
2023/05/11 11:35:43;;;;;;;2.92;1.48;;;;;;;15.03;71.58;100766.56;5034282;28;20049;-44
2023/05/11 11:38:19;;;;;;;3.05;0.90;;;;;;;14.90;71.39;100770.75;5034256;28;20041;-44
2023/05/11 11:48:34;;;;;;;3.97;1.60;;;;;;;14.06;72.53;100783.13;5036616;28;20037;-43
2023/05/11 11:51:05;;;;;;;6.72;3.25;;;;;;;13.88;72.89;100777.97;5031543;28;20037;-44
2023/05/11 11:53:35;;;;;;;2.42;0.82;;;;;;;13.75;73.91;100779.31;5033595;28;20050;-52
2023/05/11 11:56:27;;;;;;;3.95;0.75;;;;;;;13.66;74.56;100775.13;5027066;28;20054;-44
2023/05/11 11:59:15;;;;;;;;;;;;;;;13.68;74.96;100784.72;5020148;28;20057;-43
2023/05/11 12:02:04;;;;;;;2.75;0.82;;;;;;;13.79;74.46;100782.16;5016137;28;20291;-42
2023/05/11 12:04:56;;;;;;;1.55;0.65;;;;;;;13.98;75.02;100782.94;5020428;28;20403;-43
2023/05/11 12:07:51;;;;;;;4.38;0.77;;;;;;;14.24;75.11;100787.84;5001870;28;20526;-43
2023/05/11 12:10:20;;;;;;;4.32;0.70;;;;;;;14.53;75.10;100792.00;5022467;28;20049;-43
2023/05/11 12:12:49;;;;;;;2.78;0.60;;;;;;;14.73;75.11;100787.97;5036493;28;20049;-43
2023/05/11 12:15:31;;;;;;;2.35;0.65;;;;;;;14.97;74.88;100789.56;5028340;28;20049;-43
2023/05/11 12:17:58;;;;;;;3.83;0.73;;;;;;;15.24;75.13;100794.78;5021359;28;20038;-44
2023/05/11 12:20:25;;;;;;;0.98;0.52;;;;;;;15.49;75.16;100799.97;5032913;28;20290;-44
2023/05/11 12:22:52;;;;;;;2.05;1.38;;;;;;;15.65;75.24;100794.97;5020140;28;20506;-43
2023/05/11 12:25:20;;;;;;;2.53;1.05;;;;;;;15.64;75.48;100801.78;5031864;28;20116;-46
2023/05/11 12:28:00;;;;;;;5.28;1.25;;;;;;;15.61;75.61;100797.75;5034421;28;20049;-44
2023/05/11 12:30:30;;;;;;;2.65;0.80;;;;;;;15.52;75.70;100815.94;5033532;28;20053;-44
2023/05/11 12:32:59;;;;;;;2.00;0.80;;;;;;;15.31;75.71;100808.03;5032250;28;20045;-44
2023/05/11 12:35:28;;;;;;;2.95;0.68;;;;;;;15.04;75.67;100818.34;5033839;28;20052;-44
2023/05/11 12:37:58;;;;;;;0.32;0.20;;;;;;;14.79;75.67;100819.13;5029689;28;20073;-43
2023/05/11 12:40:25;;;;;;;1.05;0.30;;;;;;;14.50;75.21;100820.59;5029199;28;20053;-41
2023/05/11 12:42:58;;;;;;;0.95;0.40;;;;;;;14.29;75.33;100820.16;5026167;28;20049;-42
2023/05/11 12:45:28;;;;;;;3.30;0.57;;;;;;;14.09;75.77;100821.31;5030978;28;20038;-41
2023/05/11 12:47:57;;;;;;;2.03;0.55;;;;;;;13.98;76.25;100827.50;5032327;28;20132;-41
2023/05/11 12:50:23;;;;;;;2.38;0.45;;;;;;;13.89;76.83;100826.09;5033766;28;20171;-42
2023/05/11 12:52:51;;;;;;;1.08;0.80;;;;;;;13.80;77.22;100815.19;5031511;28;20450;-41
2023/05/11 12:55:28;;;;;;;3.40;0.93;;;;;;;13.82;77.65;100823.97;5032968;28;20041;-42
2023/05/11 12:58:07;;;;;;;0.90;0.52;;;;;;;13.87;77.72;100814.53;5029870;28;20039;-41
2023/05/11 13:00:56;;;;;;;2.42;0.93;;;;;;;13.81;77.68;100816.81;5032117;28;20079;-46
2023/05/11 13:03:46;;;;;;;1.85;0.70;;;;;;;13.74;77.98;100824.97;5033808;28;20056;-42
2023/05/11 13:06:17;;;;;;;7.22;1.00;;;;;;;13.75;78.48;100823.81;5032922;28;20395;-41
2023/05/11 13:12:53;;;;;;;0.52;0.50;;;;;;;14.04;78.66;100825.22;5033854;28;20045;-42
2023/05/11 13:15:50;;;;;;;2.15;1.15;;;;;;;14.29;78.76;100843.25;5018465;28;20049;-41
2023/05/11 13:18:18;;;;;;;3.42;2.30;;;;;;;14.53;78.63;100836.56;5033621;28;20376;-41
2023/05/11 13:20:45;;;;;;;2.50;1.85;;;;;;;14.76;78.63;100842.97;5031021;28;20045;-42
2023/05/11 13:23:14;;;;;;;2.03;1.02;;;;;;;14.97;78.60;100829.41;5032970;28;20072;-41
2023/05/11 13:25:50;;;;;;;1.90;0.98;;;;;;;15.21;78.38;100839.34;5031354;28;20053;-42
2023/05/11 13:28:23;;;;;;;1.55;0.82;;;;;;;15.46;78.14;100842.56;5032878;28;20053;-42
2023/05/11 13:30:58;;;;;;;1.27;0.60;;;;;;;15.72;77.82;100848.94;5033562;28;20120;-51
2023/05/11 13:33:26;;;;;;;0.60;0.40;;;;;;;15.80;77.59;100849.84;5014256;28;20530;-42
2023/05/11 13:41:16;;;;;;;2.28;0.50;;;;;;;15.63;77.71;100836.44;5008795;28;20103;-43
2023/05/11 13:44:03;;;;;;;1.63;0.40;;;;;;;15.44;77.93;100840.09;5027250;28;20049;-46
2023/05/11 13:46:30;;;;;;;0.93;0.50;;;;;;;15.29;78.21;100843.06;5033176;28;20054;-43
2023/05/11 13:48:59;;;;;;;1.17;0.43;;;;;;;15.11;78.18;100835.22;5012258;28;20487;-43
2023/05/11 13:51:26;;;;;;;0.30;0.30;;;;;;;14.96;77.92;100838.94;5022630;28;20046;-43
2023/05/11 13:53:53;;;;;;;0.82;0.30;;;;;;;14.81;78.33;100850.22;5017302;28;20403;-43
2023/05/11 13:56:20;;;;;;;1.55;0.82;;;;;;;14.72;78.74;100856.00;5028486;28;20510;-43
2023/05/11 13:58:47;;;;;;;0.50;0.40;;;;;;;14.65;79.14;100850.31;5037209;28;20099;-43
2023/05/11 14:01:17;;;;;;;0.65;0.30;;;;;;;14.62;78.87;100856.63;5033131;28;20041;-44
2023/05/11 14:03:44;;;;;;;0.65;0.30;;;;;;;14.63;79.02;100863.81;5015218;28;20132;-43
2023/05/11 14:06:10;;;;;;;0.90;0.30;;;;;;;14.75;79.38;100866.44;5017652;28;20056;-45
2023/05/11 14:08:37;;;;;;;1.33;0.57;;;;;;;14.91;78.97;100867.13;5027227;28;20064;-43
2023/05/11 14:11:07;;;;;;;2.83;0.73;;;;;;;15.09;79.03;100873.03;5027738;28;20045;-50
2023/05/11 14:13:33;;;;;;;0.70;0.30;;;;;;;15.40;79.10;100874.72;5015828;28;20125;-43